createdAt,value
2023-02-03T00:01:42.087Z,8.70
2023-02-03T00:04:10.526Z,8.70
2023-02-03T00:06:38.811Z,8.70
2023-02-03T00:09:07.128Z,8.80
2023-02-03T00:11:35.458Z,8.80
2023-02-03T00:14:08.117Z,8.70
2023-02-03T00:16:36.839Z,8.70
2023-02-03T00:19:05.238Z,8.70
2023-02-03T00:21:33.533Z,8.80
2023-02-03T00:24:01.849Z,8.80
2023-02-03T00:26:30.237Z,8.80
2023-02-03T00:29:00.922Z,8.80
2023-02-03T00:31:30.697Z,8.80
2023-02-03T00:33:59.507Z,8.80
2023-02-03T00:36:28.446Z,8.70
2023-02-03T00:38:56.896Z,8.80
2023-02-03T00:41:30.087Z,8.80
2023-02-03T00:43:58.485Z,8.80
2023-02-03T00:46:26.962Z,8.80
2023-02-03T00:48:56.641Z,8.80
2023-02-03T00:51:25.069Z,8.80
2023-02-03T00:53:53.345Z,8.80
2023-02-03T00:56:21.660Z,8.80
2023-02-03T00:58:49.972Z,8.80
2023-02-03T01:01:18.509Z,8.80
2023-02-03T01:03:46.824Z,8.80
2023-02-03T01:06:19.050Z,8.80
2023-02-03T01:08:47.989Z,8.80
2023-02-03T01:11:18.734Z,8.90
2023-02-03T01:13:47.564Z,8.90
2023-02-03T01:16:18.100Z,8.80
2023-02-03T01:18:47.499Z,8.80
2023-02-03T01:21:20.569Z,8.90
2023-02-03T01:23:49.161Z,8.90
2023-02-03T01:26:20.070Z,8.90
2023-02-03T01:28:53.901Z,8.90
2023-02-03T01:31:25.805Z,8.90
2023-02-03T01:33:55.261Z,8.90
2023-02-03T01:36:27.644Z,8.90
2023-02-03T01:38:56.266Z,8.90
2023-02-03T01:41:27.849Z,8.90
2023-02-03T01:43:58.579Z,9.00
2023-02-03T01:46:32.116Z,8.90
2023-02-03T01:49:09.449Z,8.90
2023-02-03T01:51:42.560Z,8.90
2023-02-03T01:54:14.911Z,8.90
2023-02-03T01:56:49.485Z,9.00
2023-02-03T01:59:20.391Z,8.90
2023-02-03T02:01:49.120Z,8.90
2023-02-03T02:04:18.130Z,8.90
2023-02-03T02:06:48.960Z,8.90
2023-02-03T02:09:17.800Z,8.90
2023-02-03T02:11:46.256Z,8.90
2023-02-03T02:14:14.740Z,8.90
2023-02-03T02:16:51.389Z,8.90
2023-02-03T02:20:02.929Z,8.90
2023-02-03T02:22:40.834Z,8.90
2023-02-03T02:25:52.973Z,9.00
2023-02-03T02:28:58.285Z,8.90
2023-02-03T02:32:06.599Z,8.90
2023-02-03T02:34:50.521Z,8.90
2023-02-03T02:37:27.835Z,8.90
2023-02-03T02:40:08.861Z,8.90
2023-02-03T02:42:48.114Z,8.90
2023-02-03T02:45:24.870Z,9.00
2023-02-03T02:48:01.401Z,9.00
2023-02-03T02:50:37.886Z,9.00
2023-02-03T02:53:08.025Z,8.90
2023-02-03T02:55:39.485Z,9.00
2023-02-03T02:58:11.702Z,8.90
2023-02-03T03:00:42.259Z,9.00
2023-02-03T03:03:17.896Z,9.00
2023-02-03T03:05:52.449Z,8.90
2023-02-03T03:08:25.001Z,8.90
2023-02-03T03:10:56.645Z,8.90
2023-02-03T03:13:32.928Z,8.90
2023-02-03T03:16:02.934Z,8.90
2023-02-03T03:18:37.386Z,8.90
2023-02-03T03:21:08.248Z,8.90
2023-02-03T03:23:39.886Z,9.00
2023-02-03T03:26:14.761Z,9.00
2023-02-03T03:28:49.547Z,9.00
2023-02-03T03:31:20.701Z,9.00
2023-02-03T03:33:51.149Z,9.00
2023-02-03T03:36:27.238Z,8.90
2023-02-03T03:39:03.537Z,9.00
2023-02-03T03:41:42.775Z,9.00
2023-02-03T03:44:17.268Z,9.00
2023-02-03T03:46:53.573Z,9.00
2023-02-03T03:49:26.748Z,9.00
2023-02-03T03:52:01.982Z,9.00
2023-02-03T03:54:32.633Z,9.00
2023-02-03T03:57:06.496Z,8.90
2023-02-03T03:59:40.575Z,9.00
2023-02-03T04:02:09.118Z,8.90
2023-02-03T04:04:41.061Z,8.90
2023-02-03T04:07:09.522Z,8.90
2023-02-03T04:09:37.842Z,8.90
2023-02-03T04:12:07.142Z,8.90
2023-02-03T04:14:38.730Z,8.90
2023-02-03T04:17:07.421Z,8.90
2023-02-03T04:19:35.823Z,8.90
2023-02-03T04:22:06.619Z,8.90
2023-02-03T04:24:34.884Z,8.90
2023-02-03T04:27:05.188Z,8.90
2023-02-03T04:29:33.717Z,8.90
2023-02-03T04:32:02.119Z,9.00
2023-02-03T04:34:30.444Z,9.00
2023-02-03T04:36:58.770Z,9.00
2023-02-03T04:39:28.439Z,9.00
2023-02-03T04:41:57.073Z,9.00
2023-02-03T04:44:25.455Z,9.00
2023-02-03T04:46:53.857Z,9.00
2023-02-03T04:49:22.249Z,9.00
2023-02-03T04:51:51.023Z,9.00
2023-02-03T04:54:19.378Z,9.00
2023-02-03T04:56:49.015Z,8.90
2023-02-03T04:59:17.334Z,9.00
2023-02-03T05:01:45.672Z,9.00
2023-02-03T05:04:14.104Z,9.00
2023-02-03T05:06:42.537Z,9.00
2023-02-03T05:09:10.924Z,9.00
2023-02-03T05:11:39.417Z,9.00
2023-02-03T05:14:09.432Z,9.00
2023-02-03T05:16:37.782Z,9.00
2023-02-03T05:19:06.254Z,9.00
2023-02-03T05:21:34.604Z,9.00
2023-02-03T05:24:06.921Z,9.00
2023-02-03T05:26:35.815Z,9.00
2023-02-03T05:29:04.507Z,9.00
2023-02-03T05:31:34.880Z,9.00
2023-02-03T05:34:03.307Z,8.90
2023-02-03T05:36:31.707Z,9.00
2023-02-03T05:39:00.289Z,9.00
2023-02-03T05:41:46.254Z,9.00
2023-02-03T05:44:14.528Z,9.00
2023-02-03T05:46:44.212Z,9.10
2023-02-03T05:49:12.538Z,9.00
2023-02-03T05:51:41.239Z,9.00
2023-02-03T05:54:10.772Z,9.10
2023-02-03T05:56:39.665Z,9.10
2023-02-03T05:59:08.370Z,9.10
2023-02-03T06:01:37.809Z,9.10
2023-02-03T06:04:07.987Z,9.10
2023-02-03T06:06:36.863Z,9.10
2023-02-03T06:09:08.181Z,9.10
2023-02-03T06:11:37.589Z,9.10
2023-02-03T06:14:06.449Z,9.10
2023-02-03T06:16:34.842Z,9.10
2023-02-03T06:19:03.187Z,9.10
2023-02-03T06:21:32.895Z,9.00
2023-02-03T06:24:01.157Z,9.10
2023-02-03T06:26:29.493Z,9.10
2023-02-03T06:28:57.749Z,9.10
2023-02-03T06:31:26.320Z,9.10
2023-02-03T06:33:57.244Z,9.10
2023-02-03T06:36:25.664Z,9.10
2023-02-03T06:38:55.426Z,9.10
2023-02-03T06:41:27.555Z,9.10
2023-02-03T06:43:55.929Z,9.10
2023-02-03T06:46:28.383Z,9.20
2023-02-03T06:48:57.090Z,9.10
2023-02-03T06:51:25.670Z,9.10
2023-02-03T06:53:55.579Z,9.10
2023-02-03T06:56:24.045Z,9.20
2023-02-03T06:58:52.468Z,9.20
2023-02-03T07:01:20.900Z,9.10
2023-02-03T07:03:49.305Z,9.10
2023-02-03T07:06:17.644Z,9.20
2023-02-03T07:08:46.292Z,9.10
2023-02-03T07:11:15.975Z,9.10
2023-02-03T07:13:44.487Z,9.20
2023-02-03T07:16:12.815Z,9.10
2023-02-03T07:18:47.263Z,9.20
2023-02-03T07:21:17.826Z,9.20
2023-02-03T07:23:49.320Z,9.10
2023-02-03T07:26:19.753Z,9.20
2023-02-03T07:28:48.184Z,9.10
2023-02-03T07:31:17.032Z,9.20
2023-02-03T07:33:45.563Z,9.20
2023-02-03T07:36:13.884Z,9.20
2023-02-03T07:38:42.253Z,9.20
2023-02-03T07:41:10.765Z,9.20
2023-02-03T07:43:40.470Z,9.20
2023-02-03T07:46:08.934Z,9.20
2023-02-03T07:48:37.295Z,9.20
2023-02-03T07:51:06.242Z,9.20
2023-02-03T07:53:34.878Z,9.20
2023-02-03T07:56:03.932Z,9.30
2023-02-03T07:58:33.467Z,9.20
2023-02-03T08:01:03.292Z,9.20
2023-02-03T08:03:31.704Z,9.20
2023-02-03T08:06:00.057Z,9.20
2023-02-03T08:08:28.412Z,9.20
2023-02-03T08:10:57.526Z,9.20
2023-02-03T08:13:26.259Z,9.30
2023-02-03T08:15:54.750Z,9.30
2023-02-03T08:18:24.465Z,9.20
2023-02-03T08:20:52.876Z,9.30
2023-02-03T08:23:21.603Z,9.30
2023-02-03T08:25:52.888Z,9.30
2023-02-03T08:28:21.864Z,9.30
2023-02-03T08:30:50.330Z,9.30
2023-02-03T08:33:18.734Z,9.30
2023-02-03T08:35:50.920Z,9.30
2023-02-03T08:38:21.924Z,9.30
2023-02-03T08:40:50.444Z,9.30
2023-02-03T08:43:18.883Z,9.30
2023-02-03T08:45:47.280Z,9.30
2023-02-03T08:48:15.996Z,9.30
2023-02-03T08:50:51.950Z,9.20
2023-02-03T08:53:21.784Z,9.20
2023-02-03T08:55:50.333Z,9.20
2023-02-03T08:58:18.739Z,9.20
2023-02-03T09:00:49.827Z,9.20
2023-02-03T09:03:18.469Z,9.20
2023-02-03T09:05:46.999Z,9.20
2023-02-03T09:08:15.344Z,9.20
2023-02-03T09:10:45.055Z,9.20
2023-02-03T09:13:13.425Z,9.20
2023-02-03T09:15:41.710Z,9.30
2023-02-03T09:18:10.054Z,9.30
2023-02-03T09:20:38.490Z,9.20
2023-02-03T09:23:06.999Z,9.20
2023-02-03T09:25:35.423Z,9.20
2023-02-03T09:28:05.512Z,9.20
2023-02-03T09:30:33.946Z,9.20
2023-02-03T09:33:02.339Z,9.20
2023-02-03T09:35:30.737Z,9.20
2023-02-03T09:38:00.796Z,9.20
2023-02-03T09:40:35.643Z,9.30
2023-02-03T09:43:27.343Z,9.20
2023-02-03T09:45:55.794Z,9.20
2023-02-03T09:48:31.571Z,9.20
2023-02-03T09:51:00.172Z,9.20
2023-02-03T09:53:34.491Z,9.30
2023-02-03T09:56:03.012Z,9.30
2023-02-03T09:58:35.756Z,9.30
2023-02-03T10:01:09.989Z,9.30
2023-02-03T10:03:45.147Z,9.30
2023-02-03T10:06:26.157Z,9.40
2023-02-03T10:09:21.287Z,9.40
2023-02-03T10:12:18.552Z,9.40
2023-02-03T10:15:16.765Z,9.50
2023-02-03T10:17:53.109Z,9.50
2023-02-03T10:20:27.361Z,9.50
2023-02-03T10:23:01.491Z,9.50
2023-02-03T10:25:41.018Z,9.60
2023-02-03T10:28:17.327Z,9.60
2023-02-03T10:30:51.112Z,9.70
2023-02-03T10:33:22.162Z,9.70
2023-02-03T10:35:52.775Z,9.70
2023-02-03T10:38:39.683Z,9.80
2023-02-03T10:41:08.105Z,9.80
2023-02-03T10:43:51.565Z,9.80
2023-02-03T10:46:28.607Z,9.90
2023-02-03T10:48:57.556Z,9.90
2023-02-03T10:51:30.850Z,10.00
2023-02-03T10:54:00.303Z,10.00
2023-02-03T10:56:33.444Z,10.00
2023-02-03T10:59:02.557Z,10.00
2023-02-03T11:01:43.929Z,10.00
2023-02-03T11:04:27.027Z,10.00
2023-02-03T11:06:58.035Z,10.00
2023-02-03T11:09:32.365Z,10.00
2023-02-03T11:12:19.830Z,10.10
2023-02-03T11:14:50.637Z,10.10
2023-02-03T11:17:23.274Z,10.00
2023-02-03T11:19:53.486Z,10.10
2023-02-03T11:22:32.099Z,10.10
2023-02-03T11:25:03.902Z,10.10
2023-02-03T11:27:34.672Z,10.10
2023-02-03T11:30:17.110Z,10.20
2023-02-03T11:32:50.244Z,10.20
2023-02-03T11:35:23.977Z,10.20
2023-02-03T11:37:54.960Z,10.20
2023-02-03T11:40:29.994Z,10.20
2023-02-03T11:43:04.856Z,10.20
2023-02-03T11:45:42.084Z,10.20
2023-02-03T11:48:28.043Z,10.20
2023-02-03T11:51:05.426Z,10.20
2023-02-03T11:53:57.158Z,10.20
2023-02-03T11:56:39.103Z,10.20
2023-02-03T11:59:27.598Z,10.20
2023-02-03T12:02:47.738Z,10.20
2023-02-03T12:05:47.026Z,10.20
2023-02-03T12:08:29.221Z,10.20
2023-02-03T12:11:09.163Z,10.20
2023-02-03T12:14:05.999Z,10.20
2023-02-03T12:17:05.537Z,10.20
2023-02-03T12:19:50.835Z,10.30
2023-02-03T12:22:27.905Z,10.30
2023-02-03T12:25:05.831Z,10.30
2023-02-03T12:27:49.702Z,10.30
2023-02-03T12:30:26.511Z,10.30
2023-02-03T12:33:00.194Z,10.30
2023-02-03T12:35:34.663Z,10.30
2023-02-03T12:38:13.579Z,10.40
2023-02-03T12:40:49.328Z,10.40
2023-02-03T12:43:25.775Z,10.40
2023-02-03T12:45:59.603Z,10.40
2023-02-03T12:48:36.562Z,10.40
2023-02-03T12:51:13.369Z,10.40
2023-02-03T12:53:51.389Z,10.40
2023-02-03T12:56:28.203Z,10.40
2023-02-03T12:59:02.095Z,10.40
2023-02-03T13:01:37.162Z,10.40
2023-02-03T13:04:11.146Z,10.40
2023-02-03T13:06:50.520Z,10.40
2023-02-03T13:09:31.933Z,10.50
2023-02-03T13:12:08.154Z,10.50
2023-02-03T13:14:42.510Z,10.50
2023-02-03T13:17:19.346Z,10.50
2023-02-03T13:19:52.732Z,10.60
2023-02-03T13:22:24.324Z,10.60
2023-02-03T13:25:06.339Z,10.60
2023-02-03T13:27:48.151Z,10.50
2023-02-03T13:30:35.089Z,10.50
2023-02-03T13:34:12.853Z,10.50
2023-02-03T13:37:16.693Z,10.60
2023-02-03T13:39:59.123Z,10.60
2023-02-03T13:42:30.181Z,10.60
2023-02-03T13:45:00.730Z,10.70
2023-02-03T13:47:31.757Z,10.70
2023-02-03T13:50:02.827Z,10.70
2023-02-03T13:52:38.725Z,10.80
2023-02-03T13:55:09.639Z,10.80
2023-02-03T13:57:40.139Z,10.80
2023-02-03T14:00:50.977Z,10.90
2023-02-03T14:03:23.370Z,10.90
2023-02-03T14:05:54.655Z,10.90
2023-02-03T14:08:53.748Z,10.90
2023-02-03T14:11:43.820Z,10.90
2023-02-03T14:15:04.091Z,11.00
2023-02-03T14:18:25.079Z,10.90
2023-02-03T14:21:17.649Z,10.90
2023-02-03T14:23:59.569Z,10.90
2023-02-03T14:26:41.355Z,10.90
2023-02-03T14:29:26.255Z,10.90
2023-02-03T14:31:58.966Z,10.90
2023-02-03T14:34:37.353Z,10.90
2023-02-03T14:37:16.924Z,10.90
2023-02-03T14:40:21.380Z,10.90
2023-02-03T14:43:26.160Z,10.90
2023-02-03T14:46:29.777Z,10.90
2023-02-03T14:49:25.477Z,10.90
2023-02-03T14:52:19.495Z,10.90
2023-02-03T14:55:06.989Z,10.90
2023-02-03T14:57:44.869Z,10.90
2023-02-03T15:00:31.733Z,10.90
2023-02-03T15:03:26.631Z,10.80
2023-02-03T15:05:58.009Z,10.80
2023-02-03T15:08:48.340Z,10.80
2023-02-03T15:11:27.684Z,10.70
2023-02-03T15:13:57.732Z,10.70
2023-02-03T15:16:27.453Z,10.60
2023-02-03T15:19:00.018Z,10.60
2023-02-03T15:21:28.423Z,10.50
2023-02-03T15:23:56.786Z,10.30
2023-02-03T15:26:27.421Z,10.20
2023-02-03T15:28:57.672Z,10.10
2023-02-03T15:31:35.875Z,10.00
2023-02-03T15:34:15.937Z,9.90
2023-02-03T15:36:49.525Z,9.80
2023-02-03T15:39:30.392Z,9.80
2023-02-03T15:42:00.802Z,9.70
2023-02-03T15:44:34.162Z,9.70
2023-02-03T15:47:06.208Z,9.70
2023-02-03T15:49:40.278Z,9.60
2023-02-03T15:52:14.399Z,9.60
2023-02-03T15:54:46.223Z,9.60
2023-02-03T15:57:20.337Z,9.60
2023-02-03T15:59:55.591Z,9.60
2023-02-03T16:02:31.258Z,9.50
2023-02-03T16:05:06.127Z,9.50
2023-02-03T16:07:34.451Z,9.50
2023-02-03T16:10:02.854Z,9.50
2023-02-03T16:12:33.439Z,9.50
2023-02-03T16:15:03.285Z,9.40
2023-02-03T16:17:34.357Z,9.50
2023-02-03T16:20:33.885Z,9.40
2023-02-03T16:23:16.543Z,9.40
2023-02-03T16:25:44.860Z,9.40
2023-02-03T16:28:35.727Z,9.30
2023-02-03T16:31:29.988Z,9.40
2023-02-03T16:34:16.029Z,9.40
2023-02-03T16:37:03.208Z,9.30
2023-02-03T16:39:49.020Z,9.30
2023-02-03T16:42:37.582Z,9.30
2023-02-03T16:45:32.192Z,9.30
2023-02-03T16:48:18.275Z,9.20
2023-02-03T16:50:54.068Z,9.20
2023-02-03T16:53:26.380Z,9.20
2023-02-03T16:55:57.801Z,9.20
2023-02-03T16:58:26.503Z,9.20
2023-02-03T17:00:56.757Z,9.20
2023-02-03T17:03:27.854Z,9.20
2023-02-03T17:05:57.437Z,9.10
2023-02-03T17:08:27.834Z,9.10
2023-02-03T17:10:56.366Z,9.20
2023-02-03T17:13:25.491Z,9.10
2023-02-03T17:15:54.172Z,9.20
2023-02-03T17:18:22.799Z,9.10
2023-02-03T17:20:51.176Z,9.10
2023-02-03T17:23:19.783Z,9.10
2023-02-03T17:25:51.824Z,9.10
2023-02-03T17:28:20.321Z,9.10
2023-02-03T17:30:58.567Z,9.10
2023-02-03T17:33:27.715Z,9.10
2023-02-03T17:36:05.882Z,9.10
2023-02-03T17:55:16.606Z,9.00
2023-02-03T17:57:46.345Z,9.00
2023-02-03T18:00:15.782Z,9.00
2023-02-03T18:02:44.271Z,9.00
2023-02-03T18:05:12.661Z,9.00
2023-02-03T18:07:40.953Z,9.00
2023-02-03T18:10:09.906Z,9.00
2023-02-03T18:12:38.252Z,9.00
2023-02-03T18:15:08.928Z,9.00
2023-02-03T18:17:37.242Z,9.00
2023-02-03T18:20:06.308Z,9.00
2023-02-03T18:22:35.080Z,9.10
2023-02-03T18:25:03.504Z,9.10
2023-02-03T18:27:31.762Z,9.10
2023-02-03T18:30:00.044Z,9.00
2023-02-03T18:32:29.753Z,9.10
2023-02-03T18:34:58.015Z,9.10
2023-02-03T18:37:26.459Z,9.10
2023-02-03T18:39:54.874Z,9.10
2023-02-03T18:42:23.133Z,9.10
2023-02-03T18:44:51.404Z,9.10
2023-02-03T18:47:19.725Z,9.10
2023-02-03T18:49:49.602Z,9.10
2023-02-03T18:52:17.966Z,9.10
2023-02-03T18:54:46.271Z,9.20
2023-02-03T18:57:15.768Z,9.20
2023-02-03T18:59:44.827Z,9.20
2023-02-03T19:02:13.579Z,9.20
2023-02-03T19:04:41.878Z,9.20
2023-02-03T19:07:12.672Z,9.20
2023-02-03T19:09:41.854Z,9.20
2023-02-03T19:12:10.204Z,9.20
2023-02-03T19:14:38.495Z,9.20
2023-02-03T19:17:06.880Z,9.20
2023-02-03T19:19:35.232Z,9.20
2023-02-03T19:22:03.586Z,9.20
2023-02-03T19:24:33.322Z,9.20
2023-02-03T19:27:01.682Z,9.20
2023-02-03T19:29:29.986Z,9.20
2023-02-03T19:31:58.445Z,9.20
2023-02-03T19:34:28.436Z,9.10
2023-02-03T19:36:59.134Z,9.10
2023-02-03T19:39:27.446Z,9.10
2023-02-03T19:41:57.165Z,9.00
2023-02-03T19:44:25.505Z,9.10
2023-02-03T19:46:53.943Z,9.00
2023-02-03T19:49:22.266Z,9.00
2023-02-03T19:51:51.896Z,9.00
2023-02-03T19:54:20.211Z,9.00
2023-02-03T19:56:48.527Z,8.90
2023-02-03T19:59:18.314Z,8.90
2023-02-03T20:01:46.821Z,8.90
2023-02-03T20:04:15.145Z,8.90
2023-02-03T20:06:43.423Z,8.90
2023-02-03T20:09:12.192Z,8.80
2023-02-03T20:11:40.493Z,8.80
2023-02-03T20:14:08.848Z,8.80
2023-02-03T20:16:38.534Z,8.80
2023-02-03T20:19:07.016Z,8.80
2023-02-03T20:21:35.295Z,8.80
2023-02-03T20:24:03.591Z,8.80
2023-02-03T20:26:31.944Z,8.80
2023-02-03T20:29:00.261Z,8.70
2023-02-03T20:31:28.697Z,8.70
2023-02-03T20:33:58.814Z,8.70
2023-02-03T20:36:27.168Z,8.70
2023-02-03T20:38:55.447Z,8.70
2023-02-03T20:41:23.783Z,8.70
2023-02-03T20:43:52.118Z,8.70
2023-02-03T20:46:21.004Z,8.70
2023-02-03T20:48:49.596Z,8.60
2023-02-03T20:51:22.346Z,8.70
2023-02-03T20:53:51.526Z,8.60
2023-02-03T20:56:22.786Z,8.60
2023-02-03T20:58:51.631Z,8.70
2023-02-03T21:01:22.259Z,8.60
2023-02-03T21:04:08.179Z,8.60
2023-02-03T21:06:37.867Z,8.70
2023-02-03T21:09:15.160Z,8.60
2023-02-03T21:11:44.248Z,8.70
2023-02-03T21:14:21.354Z,8.60
2023-02-03T21:16:49.855Z,8.60
2023-02-03T21:19:29.511Z,8.60
2023-02-03T21:22:00.683Z,8.70
2023-02-03T21:24:32.172Z,8.60
2023-02-03T21:27:01.696Z,8.70
2023-02-03T21:29:33.366Z,8.70
2023-02-03T21:32:02.014Z,8.70
2023-02-03T21:34:33.053Z,8.70
2023-02-03T21:37:17.695Z,8.70
2023-02-03T21:39:47.178Z,8.70
2023-02-03T21:42:41.927Z,8.70
2023-02-03T21:45:28.578Z,8.70
2023-02-03T21:47:58.814Z,8.70
2023-02-03T21:50:30.902Z,8.80
2023-02-03T21:53:24.742Z,8.80
2023-02-03T21:55:53.452Z,8.80
2023-02-03T21:58:28.926Z,8.80
2023-02-03T22:00:59.517Z,8.70
2023-02-03T22:03:30.239Z,8.80
2023-02-03T22:06:17.479Z,8.70
2023-02-03T22:08:49.447Z,8.70
2023-02-03T22:11:23.313Z,8.70
2023-02-03T22:13:51.689Z,8.60
2023-02-03T22:16:20.674Z,8.60
2023-02-03T22:18:50.042Z,8.60
2023-02-03T22:21:19.395Z,8.60
2023-02-03T22:23:49.684Z,8.50
2023-02-03T22:26:18.980Z,8.50
2023-02-03T22:28:47.664Z,8.50
2023-02-03T22:31:16.636Z,8.60
2023-02-03T22:33:45.268Z,8.50
2023-02-03T22:36:14.503Z,8.50
2023-02-03T22:38:43.951Z,8.50
2023-02-03T22:41:13.893Z,8.40
2023-02-03T22:43:42.565Z,8.40
2023-02-03T22:46:11.227Z,8.40
2023-02-03T22:48:39.595Z,8.40
2023-02-03T22:51:08.190Z,8.30
2023-02-03T22:53:36.529Z,8.40
2023-02-03T22:56:05.241Z,8.30
2023-02-03T22:58:34.974Z,8.30
2023-02-03T23:01:03.400Z,8.40
2023-02-03T23:03:32.771Z,8.30
2023-02-03T23:06:01.237Z,8.30
2023-02-03T23:08:29.570Z,8.30
2023-02-03T23:10:57.861Z,8.30
2023-02-03T23:13:26.805Z,8.20
2023-02-03T23:15:56.506Z,8.20
2023-02-03T23:18:24.822Z,8.20
2023-02-03T23:20:53.081Z,8.20
2023-02-03T23:23:21.368Z,8.20
2023-02-03T23:25:49.681Z,8.20
2023-02-03T23:28:17.998Z,8.20
2023-02-03T23:30:46.465Z,8.10
2023-02-03T23:33:16.273Z,8.20
2023-02-03T23:35:46.484Z,8.10
2023-02-03T23:38:15.602Z,8.10
2023-02-03T23:40:44.333Z,8.10
2023-02-03T23:43:12.621Z,8.10
2023-02-03T23:45:41.283Z,8.10
2023-02-03T23:48:09.671Z,8.10
2023-02-03T23:50:39.748Z,8.10
2023-02-03T23:53:08.039Z,8.00
2023-02-03T23:55:36.554Z,8.00
2023-02-03T23:58:06.038Z,8.00
